Time;durP1;ratioP1;P1;durP2;ratioP2;P2;SDS_P1;SDS_P2;PMS_P1;PMS_P2;Temp;Humidity;BMP_temperature;BMP_pressure;BME280_temperature;BME280_humidity;BME280_pressure;Samples;Min_cycle;Max_cycle;Signal;HPM_P1;HPM_P2
2023/07/04 00:01:51;;;;;;;14.70;13.90;;;19.30;1.00;;;;;;4862486;29;20472;-85
2023/07/04 00:04:21;;;;;;;14.13;13.63;;;19.30;1.00;;;;;;4863635;29;20464;-86
2023/07/04 00:06:50;;;;;;;14.50;13.90;;;19.20;1.00;;;;;;4864002;29;20805;-85
2023/07/04 00:09:18;;;;;;;14.70;14.03;;;19.20;1.00;;;;;;4865084;29;20490;-83
2023/07/04 00:11:47;;;;;;;14.97;14.00;;;19.20;1.00;;;;;;4862502;29;20503;-84
2023/07/04 00:14:15;;;;;;;14.30;13.77;;;19.20;1.00;;;;;;4861236;29;20499;-88
2023/07/04 00:16:44;;;;;;;14.07;13.47;;;19.10;45.00;;;;;;4852258;29;20468;-85
2023/07/04 00:19:14;;;;;;;15.47;14.87;;;19.10;28.60;;;;;;4872826;29;20544;-85
2023/07/04 00:21:42;;;;;;;14.93;14.20;;;19.10;97.40;;;;;;4862083;29;20461;-86
2023/07/04 00:24:11;;;;;;;15.20;14.60;;;19.10;92.00;;;;;;4862419;29;20460;-85
2023/07/04 00:26:39;;;;;;;15.30;14.57;;;19.10;68.50;;;;;;4860285;29;20478;-87
2023/07/04 00:29:07;;;;;;;15.83;14.93;;;19.10;60.70;;;;;;4860176;29;21080;-86
2023/07/04 00:31:35;;;;;;;14.90;14.33;;;19.10;99.90;;;;;;4861936;29;20547;-87
2023/07/04 00:34:05;;;;;;;15.10;14.60;;;19.10;99.90;;;;;;4857325;29;20555;-83
2023/07/04 00:36:37;;;;;;;15.57;14.67;;;19.10;99.60;;;;;;4862310;29;20460;-88
2023/07/04 00:39:05;;;;;;;15.10;14.50;;;19.10;99.90;;;;;;4857406;29;20484;-86
2023/07/04 00:41:36;;;;;;;15.70;14.80;;;19.10;99.90;;;;;;4863218;29;20833;-83
2023/07/04 00:44:09;;;;;;;14.70;14.17;;;19.10;99.90;;;;;;4869756;29;21022;-84
2023/07/04 00:46:41;;;;;;;14.57;14.07;;;19.10;99.90;;;;;;4856108;29;20564;-84
2023/07/04 00:49:22;;;;;;;14.60;14.00;;;19.10;99.90;;;;;;4855737;29;20583;-83
2023/07/04 00:52:05;;;;;;;14.67;14.07;;;19.10;99.90;;;;;;4861682;29;20566;-84
2023/07/04 00:54:40;;;;;;;15.53;14.63;;;19.10;99.90;;;;;;4860236;29;20872;-84
2023/07/04 00:57:10;;;;;;;14.60;14.10;;;19.00;99.90;;;;;;4865489;29;20451;-85
2023/07/04 00:59:43;;;;;;;14.67;14.10;;;19.00;99.90;;;;;;4865634;29;20507;-88
2023/07/04 01:02:15;;;;;;;14.90;14.30;;;19.00;99.90;;;;;;4857222;29;20989;-83
2023/07/04 01:04:45;;;;;;;14.67;14.10;;;19.10;99.90;;;;;;4860687;29;20467;-85
2023/07/04 01:07:25;;;;;;;15.17;14.57;;;19.10;99.90;;;;;;4861697;29;20464;-85
2023/07/04 01:09:59;;;;;;;15.00;14.30;;;19.00;99.90;;;;;;4854362;29;20456;-83
2023/07/04 01:12:29;;;;;;;15.33;14.43;;;19.00;99.90;;;;;;4858043;29;20496;-84
2023/07/04 01:14:59;;;;;;;14.50;14.00;;;19.00;99.90;;;;;;4862705;29;20468;-83
2023/07/04 01:17:28;;;;;;;14.60;14.10;;;19.10;99.90;;;;;;4865093;29;20459;-84
2023/07/04 01:19:58;;;;;;;15.07;14.57;;;19.10;99.90;;;;;;4858098;29;20468;-86
2023/07/04 01:22:34;;;;;;;14.90;14.33;;;19.00;99.90;;;;;;4864472;29;20550;-84
2023/07/04 01:25:11;;;;;;;15.03;14.47;;;19.00;99.90;;;;;;4870959;29;20467;-87
2023/07/04 01:27:43;;;;;;;14.83;14.23;;;19.00;99.90;;;;;;4855132;29;20579;-84
2023/07/04 01:30:13;;;;;;;14.70;14.20;;;19.10;99.90;;;;;;4859867;29;20912;-83
2023/07/04 01:32:43;;;;;;;14.93;14.33;;;19.00;99.90;;;;;;4861449;29;20485;-82
2023/07/04 01:35:14;;;;;;;14.87;14.27;;;19.00;99.90;;;;;;4859415;29;20475;-83
2023/07/04 01:37:42;;;;;;;14.37;13.90;;;19.00;99.90;;;;;;4859287;29;20483;-80
2023/07/04 01:40:12;;;;;;;14.93;14.43;;;19.00;99.90;;;;;;4861721;29;20467;-80
2023/07/04 01:42:42;;;;;;;15.23;14.53;;;19.00;99.90;;;;;;4861498;29;20460;-85
2023/07/04 01:45:11;;;;;;;13.90;13.50;;;19.00;99.90;;;;;;4854330;29;20845;-85
2023/07/04 01:47:40;;;;;;;14.80;14.30;;;19.00;1.00;;;;;;4860001;29;20480;-84
2023/07/04 01:50:10;;;;;;;14.43;13.90;;;18.90;99.90;;;;;;4861065;29;21039;-86
2023/07/04 01:52:41;;;;;;;13.97;13.37;;;19.00;99.90;;;;;;4862900;29;20732;-85
2023/07/04 01:55:10;;;;;;;14.07;13.67;;;19.00;99.90;;;;;;4864415;29;20528;-87
2023/07/04 01:57:39;;;;;;;14.40;14.00;;;19.00;99.90;;;;;;4862934;29;20510;-83
2023/07/04 02:00:12;;;;;;;14.80;14.30;;;18.90;99.90;;;;;;4863687;29;20459;-83
2023/07/04 02:02:42;;;;;;;14.47;13.97;;;18.90;1.00;;;;;;4865953;29;20523;-85
2023/07/04 02:05:10;;;;;;;15.80;15.10;;;18.90;99.90;;;;;;4860124;29;20521;-84
2023/07/04 02:07:39;;;;;;;14.90;14.40;;;19.00;99.90;;;;;;4861889;29;20463;-84
2023/07/04 02:10:08;;;;;;;14.30;13.90;;;19.00;99.90;;;;;;4859086;29;20516;-86
2023/07/04 02:12:36;;;;;;;14.70;14.00;;;19.00;99.90;;;;;;4857902;29;20525;-84
2023/07/04 02:15:07;;;;;;;14.70;14.20;;;18.90;99.90;;;;;;4860428;29;20524;-86
2023/07/04 02:17:37;;;;;;;14.00;13.60;;;19.00;99.90;;;;;;4859024;29;20903;-81
2023/07/04 02:20:06;;;;;;;14.40;14.00;;;18.90;99.90;;;;;;4861734;29;20545;-81
2023/07/04 02:22:34;;;;;;;14.70;14.10;;;19.00;99.90;;;;;;4866367;29;20463;-82
2023/07/04 02:25:03;;;;;;;14.80;14.20;;;19.00;99.90;;;;;;4868626;29;20468;-86
2023/07/04 02:27:31;;;;;;;14.43;14.03;;;18.90;99.90;;;;;;4862389;29;20842;-82
2023/07/04 02:30:00;;;;;;;15.10;14.43;;;18.90;99.90;;;;;;4866270;29;20460;-86
2023/07/04 02:32:28;;;;;;;14.30;13.80;;;18.90;99.90;;;;;;4860415;29;20463;-88
2023/07/04 02:34:58;;;;;;;14.20;13.80;;;18.90;99.90;;;;;;4860146;29;20471;-83
2023/07/04 02:37:26;;;;;;;14.23;13.73;;;18.90;99.90;;;;;;4864508;29;20484;-87
2023/07/04 02:39:54;;;;;;;14.57;14.07;;;18.90;99.90;;;;;;4865796;29;20474;-88
2023/07/04 02:42:22;;;;;;;14.63;14.13;;;18.80;99.90;;;;;;4865613;29;20474;-85
2023/07/04 02:44:51;;;;;;;13.77;13.37;;;18.80;99.90;;;;;;4864721;29;20471;-86
2023/07/04 02:47:23;;;;;;;14.33;13.87;;;18.80;99.90;;;;;;4865548;29;20474;-82
2023/07/04 02:49:51;;;;;;;14.40;13.90;;;18.80;99.90;;;;;;4865954;29;20589;-81
2023/07/04 02:52:21;;;;;;;14.63;13.97;;;18.70;99.90;;;;;;4866845;29;20461;-83
2023/07/04 02:54:49;;;;;;;14.73;14.23;;;18.70;99.90;;;;;;4865034;29;20484;-82
2023/07/04 02:57:18;;;;;;;14.80;14.13;;;18.60;1.00;;;;;;4860008;29;20618;-82
2023/07/04 02:59:46;;;;;;;14.73;14.03;;;18.60;1.00;;;;;;4866903;29;20464;-84
2023/07/04 03:02:14;;;;;;;14.90;14.40;;;18.60;1.00;;;;;;4862064;29;20472;-84
2023/07/04 03:04:43;;;;;;;14.70;14.10;;;18.60;1.00;;;;;;4864008;29;20967;-85
2023/07/04 03:07:11;;;;;;;14.60;14.10;;;18.60;1.00;;;;;;4864755;29;20463;-85
2023/07/04 03:09:41;;;;;;;14.87;14.37;;;18.60;1.00;;;;;;4862598;29;20492;-83
2023/07/04 03:12:10;;;;;;;14.37;13.97;;;18.60;1.00;;;;;;4861522;29;20480;-81
2023/07/04 03:14:38;;;;;;;14.63;14.13;;;18.50;1.00;;;;;;4859307;29;20492;-82
2023/07/04 03:17:06;;;;;;;14.60;13.90;;;18.60;1.00;;;;;;4862575;29;20455;-83
2023/07/04 03:19:34;;;;;;;15.07;14.57;;;18.50;1.00;;;;;;4861153;29;20475;-85
2023/07/04 03:22:03;;;;;;;15.00;14.30;;;18.50;1.00;;;;;;4866991;29;20460;-84
2023/07/04 03:24:31;;;;;;;15.83;15.27;;;18.50;1.00;;;;;;4863428;29;20468;-83
2023/07/04 03:27:00;;;;;;;14.97;14.50;;;18.50;1.00;;;;;;4863125;29;20464;-83
2023/07/04 03:29:28;;;;;;;15.23;14.73;;;18.50;1.00;;;;;;4863637;29;20575;-84
2023/07/04 03:31:57;;;;;;;15.37;14.73;;;18.50;1.00;;;;;;4862661;29;20468;-83
2023/07/04 03:34:25;;;;;;;15.30;14.73;;;18.50;1.00;;;;;;4862593;29;20654;-82
2023/07/04 03:36:53;;;;;;;15.53;15.00;;;18.50;1.00;;;;;;4862584;29;20465;-83
2023/07/04 03:39:21;;;;;;;15.10;14.50;;;18.50;1.00;;;;;;4858554;29;20587;-88
2023/07/04 03:41:49;;;;;;;14.90;14.40;;;18.50;1.00;;;;;;4868611;29;20476;-84
2023/07/04 03:44:19;;;;;;;14.50;14.10;;;18.50;1.00;;;;;;4865392;29;20457;-84
2023/07/04 03:46:50;;;;;;;14.33;13.93;;;18.50;1.00;;;;;;4867309;29;20556;-85
2023/07/04 03:49:18;;;;;;;14.73;14.13;;;18.50;1.00;;;;;;4864026;29;20540;-83
2023/07/04 03:51:46;;;;;;;14.83;14.43;;;18.60;1.00;;;;;;4863931;29;20452;-83
2023/07/04 03:54:15;;;;;;;14.97;14.37;;;18.60;1.00;;;;;;4861201;29;20590;-83
2023/07/04 03:56:43;;;;;;;15.30;14.70;;;18.60;1.00;;;;;;4865280;29;20468;-85
2023/07/04 03:59:11;;;;;;;15.30;14.70;;;18.60;99.90;;;;;;4863335;29;20507;-87
2023/07/04 04:01:40;;;;;;;14.87;14.40;;;18.50;1.00;;;;;;4861676;29;20841;-81
2023/07/04 04:04:09;;;;;;;14.67;14.23;;;18.50;1.00;;;;;;4865634;29;20471;-87
2023/07/04 04:06:37;;;;;;;14.97;14.37;;;18.40;1.00;;;;;;4860625;29;20545;-86
2023/07/04 04:09:05;;;;;;;14.80;14.30;;;18.50;1.00;;;;;;4864657;29;20514;-87
2023/07/04 04:11:33;;;;;;;14.70;14.20;;;18.60;1.00;;;;;;4868713;29;20467;-83
2023/07/04 04:14:01;;;;;;;14.53;14.03;;;18.60;1.00;;;;;;4865220;29;20498;-88
2023/07/04 04:16:30;;;;;;;14.00;13.60;;;18.60;1.00;;;;;;4864848;29;21024;-84
2023/07/04 04:19:01;;;;;;;14.40;13.90;;;18.60;1.00;;;;;;4867840;29;20491;-81
2023/07/04 04:21:29;;;;;;;14.63;14.23;;;18.60;1.00;;;;;;4861431;29;20468;-85
2023/07/04 04:23:57;;;;;;;14.77;14.20;;;18.60;1.00;;;;;;4874758;29;21086;-86
2023/07/04 04:26:26;;;;;;;15.50;14.90;;;18.60;1.00;;;;;;4857898;29;20551;-86
2023/07/04 04:28:55;;;;;;;15.30;14.70;;;18.60;1.00;;;;;;4864636;29;20817;-84
2023/07/04 04:31:23;;;;;;;15.50;14.80;;;18.70;1.00;;;;;;4864082;29;20453;-84
2023/07/04 04:33:52;;;;;;;14.77;14.37;;;18.70;1.00;;;;;;4860592;29;21586;-87
2023/07/04 04:36:21;;;;;;;14.87;14.47;;;18.70;1.00;;;;;;4857017;29;20466;-81
2023/07/04 04:38:49;;;;;;;15.00;14.50;;;18.70;1.00;;;;;;4857403;29;20485;-80
2023/07/04 04:41:18;;;;;;;15.67;15.10;;;18.70;1.00;;;;;;4861059;29;20866;-84
2023/07/04 04:43:50;;;;;;;14.83;14.33;;;18.90;1.00;;;;;;4859654;29;20486;-84
2023/07/04 04:46:18;;;;;;;15.97;15.37;;;18.80;1.00;;;;;;4856228;29;20477;-81
2023/07/04 04:48:46;;;;;;;15.50;14.93;;;18.80;1.00;;;;;;4858496;29;20848;-80
2023/07/04 04:51:14;;;;;;;15.40;14.70;;;18.80;1.00;;;;;;4866024;29;20960;-81
2023/07/04 04:53:45;;;;;;;16.30;15.60;;;18.90;1.00;;;;;;4851715;29;20467;-79
2023/07/04 04:56:13;;;;;;;15.53;14.93;;;18.90;1.00;;;;;;4859793;29;20472;-80
2023/07/04 04:58:43;;;;;;;15.37;14.77;;;19.00;1.00;;;;;;4854798;29;21260;-80
2023/07/04 05:01:15;;;;;;;14.80;14.40;;;19.00;99.90;;;;;;4854097;29;20977;-80
2023/07/04 05:03:43;;;;;;;15.47;14.97;;;18.90;1.00;;;;;;4853243;29;21214;-80
2023/07/04 05:06:12;;;;;;;16.33;15.33;;;18.90;1.00;;;;;;4850197;29;20484;-80
2023/07/04 05:08:40;;;;;;;15.63;15.00;;;18.90;1.00;;;;;;4852595;29;20511;-80
2023/07/04 05:11:10;;;;;;;16.17;15.57;;;18.90;1.00;;;;;;4856727;29;20516;-80
2023/07/04 05:13:39;;;;;;;16.13;15.63;;;18.80;71.00;;;;;;4860646;29;20840;-78
2023/07/04 05:16:11;;;;;;;15.97;15.47;;;18.80;99.90;;;;;;4853222;29;20481;-80
2023/07/04 05:18:41;;;;;;;16.17;15.57;;;18.80;1.00;;;;;;4849226;29;20536;-78
2023/07/04 05:21:12;;;;;;;16.63;15.93;;;18.80;1.00;;;;;;4857358;29;20463;-79
2023/07/04 05:23:43;;;;;;;16.37;15.77;;;18.80;1.00;;;;;;4846438;29;20468;-79
2023/07/04 05:26:15;;;;;;;16.53;15.93;;;18.80;1.00;;;;;;4847284;29;20461;-80
2023/07/04 05:28:43;;;;;;;16.17;15.67;;;18.80;1.00;;;;;;4856559;29;20538;-80
2023/07/04 05:31:13;;;;;;;15.70;15.10;;;18.90;1.00;;;;;;4849834;29;20467;-85
2023/07/04 05:33:43;;;;;;;15.30;14.80;;;18.90;1.00;;;;;;4850624;29;20900;-82
2023/07/04 05:36:14;;;;;;;16.27;15.63;;;18.90;1.00;;;;;;4855870;29;20571;-84
2023/07/04 05:38:43;;;;;;;16.90;16.20;;;19.00;1.00;;;;;;4843248;29;20497;-82
2023/07/04 05:41:15;;;;;;;16.40;15.50;;;19.00;1.00;;;;;;4849982;29;20524;-82
2023/07/04 05:43:44;;;;;;;15.70;15.00;;;19.00;99.90;;;;;;4852966;29;20774;-81
2023/07/04 05:46:13;;;;;;;15.80;15.20;;;19.00;1.00;;;;;;4864673;29;20507;-82
2023/07/04 05:48:42;;;;;;;15.70;15.20;;;18.90;99.90;;;;;;4864584;29;20579;-82
2023/07/04 05:51:12;;;;;;;15.60;15.10;;;19.00;99.90;;;;;;4862618;29;20475;-82
2023/07/04 05:53:41;;;;;;;15.87;15.30;;;19.00;99.90;;;;;;4842592;29;20468;-82
2023/07/04 05:56:12;;;;;;;16.03;15.30;;;19.00;99.90;;;;;;4857897;29;20480;-80
2023/07/04 05:58:43;;;;;;;15.70;15.00;;;19.10;99.90;;;;;;4867987;29;20502;-82
2023/07/04 06:01:16;;;;;;;15.30;14.73;;;19.10;99.90;;;;;;4863206;29;20490;-80
2023/07/04 06:03:44;;;;;;;16.60;15.80;;;19.10;99.90;;;;;;4853441;29;20471;-79
2023/07/04 06:06:18;;;;;;;15.83;15.23;;;19.10;99.90;;;;;;4856663;29;21095;-82
2023/07/04 06:08:47;;;;;;;15.70;15.10;;;19.10;99.90;;;;;;4858066;29;20524;-84
2023/07/04 06:11:16;;;;;;;16.23;15.33;;;19.00;99.90;;;;;;4858956;29;20451;-83
2023/07/04 06:13:45;;;;;;;15.33;14.93;;;19.10;99.90;;;;;;4863193;29;20482;-84
2023/07/04 06:16:14;;;;;;;15.50;15.00;;;19.20;99.90;;;;;;4857822;29;20599;-84
2023/07/04 06:18:43;;;;;;;16.73;15.90;;;19.30;99.90;;;;;;4857333;29;20491;-84
2023/07/04 06:21:13;;;;;;;15.43;14.70;;;19.40;99.90;;;;;;4866452;29;20468;-83
2023/07/04 06:23:43;;;;;;;15.70;14.90;;;19.40;99.90;;;;;;4858935;29;20468;-84
2023/07/04 06:26:12;;;;;;;15.60;15.10;;;19.50;99.90;;;;;;4864838;29;20465;-85
2023/07/04 06:28:41;;;;;;;15.03;14.53;;;19.50;99.90;;;;;;4860711;29;20487;-83
2023/07/04 06:31:14;;;;;;;16.00;15.40;;;19.60;62.00;;;;;;4864175;29;20876;-85
2023/07/04 06:33:43;;;;;;;15.20;14.70;;;19.70;41.20;;;;;;4860155;29;20457;-84
2023/07/04 06:36:13;;;;;;;14.97;14.50;;;19.70;1.00;;;;;;4864162;29;20487;-86
2023/07/04 06:38:42;;;;;;;16.03;15.23;;;19.80;1.00;;;;;;4858400;29;20476;-84
2023/07/04 06:41:11;;;;;;;15.70;15.03;;;19.60;1.00;;;;;;4857626;29;20449;-85
2023/07/04 06:43:43;;;;;;;15.87;15.20;;;19.60;1.00;;;;;;4863438;29;21082;-85
2023/07/04 06:46:14;;;;;;;15.57;15.07;;;19.70;1.00;;;;;;4865039;29;20530;-85
2023/07/04 06:48:42;;;;;;;15.73;15.03;;;19.70;1.00;;;;;;4864523;29;20487;-85
2023/07/04 06:51:13;;;;;;;15.60;14.90;;;19.70;1.00;;;;;;4851289;29;20473;-86
2023/07/04 06:53:42;;;;;;;15.60;14.90;;;19.80;1.00;;;;;;4862149;29;20953;-84
2023/07/04 06:56:13;;;;;;;15.90;15.10;;;19.80;1.00;;;;;;4859963;29;20493;-86
2023/07/04 06:58:43;;;;;;;14.90;14.40;;;19.90;1.00;;;;;;4863332;29;20874;-85
2023/07/04 07:01:13;;;;;;;15.07;14.57;;;19.90;1.00;;;;;;4862211;29;20455;-84
2023/07/04 07:03:41;;;;;;;15.33;14.40;;;19.90;1.00;;;;;;4849306;29;20563;-84
2023/07/04 07:06:12;;;;;;;15.37;14.70;;;19.90;1.00;;;;;;4866370;29;20564;-83
2023/07/04 07:08:41;;;;;;;15.57;14.90;;;19.90;1.00;;;;;;4860327;29;20519;-82
2023/07/04 07:11:11;;;;;;;15.70;15.07;;;20.00;99.90;;;;;;4862351;29;20456;-84
2023/07/04 07:13:40;;;;;;;15.17;14.60;;;20.00;99.90;;;;;;4866639;29;20547;-84
2023/07/04 07:16:11;;;;;;;15.43;14.83;;;20.10;99.90;;;;;;4862457;29;20504;-86
2023/07/04 07:18:44;;;;;;;15.50;14.93;;;20.10;1.00;;;;;;4862408;29;20663;-84
2023/07/04 07:21:13;;;;;;;14.97;14.47;;;20.20;1.00;;;;;;4858420;29;20460;-85
2023/07/04 07:23:42;;;;;;;14.00;13.50;;;20.20;99.90;;;;;;4861132;29;20471;-84
2023/07/04 07:26:12;;;;;;;15.27;14.70;;;20.20;99.90;;;;;;4864784;29;21035;-85
2023/07/04 07:28:41;;;;;;;15.23;14.50;;;20.20;99.90;;;;;;4864689;29;20487;-85
2023/07/04 07:31:12;;;;;;;15.10;14.60;;;20.20;99.90;;;;;;4863282;29;20491;-86
2023/07/04 07:33:45;;;;;;;14.47;13.97;;;20.20;99.90;;;;;;4865594;29;20546;-86
2023/07/04 07:36:15;;;;;;;15.00;14.10;;;20.20;99.90;;;;;;4853298;29;21180;-82
2023/07/04 07:38:44;;;;;;;15.20;14.60;;;20.30;99.90;;;;;;4862762;29;20475;-84
2023/07/04 07:41:13;;;;;;;15.37;14.70;;;20.30;99.90;;;;;;4866224;29;20986;-84
2023/07/04 07:43:42;;;;;;;15.10;14.30;;;20.30;99.90;;;;;;4861251;29;20471;-85
2023/07/04 07:46:12;;;;;;;15.60;14.80;;;20.30;99.90;;;;;;4860625;29;20978;-84
2023/07/04 07:48:42;;;;;;;15.67;14.90;;;20.40;99.90;;;;;;4865003;29;20541;-84
2023/07/04 07:51:12;;;;;;;15.00;14.47;;;20.40;99.90;;;;;;4863199;29;20453;-83
2023/07/04 07:53:42;;;;;;;15.27;14.67;;;20.30;99.90;;;;;;4869336;29;20552;-83
2023/07/04 07:56:13;;;;;;;15.50;14.73;;;20.30;99.90;;;;;;4859233;29;20578;-84
2023/07/04 07:58:41;;;;;;;16.10;15.00;;;20.40;99.90;;;;;;4869130;29;20481;-84
2023/07/04 08:01:13;;;;;;;16.57;15.77;;;20.50;99.90;;;;;;4869763;29;20988;-83
2023/07/04 08:03:43;;;;;;;15.83;15.23;;;20.60;99.90;;;;;;4866278;29;20470;-85
2023/07/04 08:06:22;;;;;;;16.00;15.20;;;20.50;99.90;;;;;;4850198;29;20475;-86
2023/07/04 08:08:50;;;;;;;16.03;15.20;;;20.60;99.90;;;;;;4867662;29;21066;-86
2023/07/04 08:11:19;;;;;;;15.93;15.13;;;20.70;99.90;;;;;;4865065;29;20465;-84
2023/07/04 08:13:48;;;;;;;15.37;14.43;;;20.80;99.90;;;;;;4864842;29;20460;-88
2023/07/04 08:16:20;;;;;;;14.90;14.33;;;20.90;99.90;;;;;;4867062;29;20476;-84
2023/07/04 08:18:50;;;;;;;15.30;14.63;;;21.00;99.90;;;;;;4864459;29;20523;-84
2023/07/04 08:21:19;;;;;;;15.47;14.87;;;21.10;99.90;;;;;;4855883;29;20465;-85
2023/07/04 08:23:49;;;;;;;15.77;14.97;;;21.10;99.90;;;;;;4860067;29;20868;-85
2023/07/04 08:26:18;;;;;;;15.77;15.17;;;21.10;99.90;;;;;;4861636;29;20454;-83
2023/07/04 08:28:46;;;;;;;15.80;15.10;;;21.00;99.90;;;;;;4863233;29;20480;-82
2023/07/04 08:31:17;;;;;;;15.73;15.03;;;21.00;99.90;;;;;;4862247;29;20584;-83
2023/07/04 08:33:46;;;;;;;15.73;15.03;;;21.10;99.90;;;;;;4864488;29;20540;-85
2023/07/04 08:36:17;;;;;;;15.13;14.23;;;21.20;99.90;;;;;;4852599;29;21045;-83
2023/07/04 08:38:48;;;;;;;15.47;14.83;;;21.20;99.90;;;;;;4856917;29;20564;-82
2023/07/04 08:41:32;;;;;;;16.37;15.57;;;21.30;99.90;;;;;;4853314;29;20496;-84
2023/07/04 08:44:04;;;;;;;16.43;15.63;;;21.40;99.90;;;;;;4852138;29;20471;-84
2023/07/04 08:46:37;;;;;;;16.13;15.23;;;21.50;99.90;;;;;;4856177;29;20475;-86
2023/07/04 08:49:08;;;;;;;16.33;15.43;;;21.50;99.90;;;;;;4862077;29;20490;-84
2023/07/04 08:51:44;;;;;;;15.40;14.80;;;21.50;99.90;;;;;;4864209;29;20966;-84
2023/07/04 08:54:13;;;;;;;16.33;15.73;;;21.60;99.90;;;;;;4860397;29;20562;-85
2023/07/04 08:56:42;;;;;;;16.63;15.93;;;21.60;99.90;;;;;;4858267;29;20492;-84
2023/07/04 08:59:18;;;;;;;16.27;15.47;;;21.50;99.90;;;;;;4862334;29;20500;-85
2023/07/04 09:01:59;;;;;;;16.13;15.30;;;21.60;99.90;;;;;;4860267;29;20461;-85
2023/07/04 09:04:37;;;;;;;17.10;16.30;;;21.60;99.90;;;;;;4862917;29;20902;-87
2023/07/04 09:07:15;;;;;;;17.97;16.93;;;21.60;99.90;;;;;;4851049;29;20463;-84
2023/07/04 09:09:52;;;;;;;17.10;16.20;;;21.70;99.90;;;;;;4862819;29;20592;-83
2023/07/04 09:12:20;;;;;;;16.50;15.80;;;21.70;99.90;;;;;;4853667;29;20498;-84
2023/07/04 09:14:56;;;;;;;16.73;15.90;;;21.60;99.90;;;;;;4859385;29;20874;-84
2023/07/04 09:17:29;;;;;;;16.80;16.10;;;21.70;99.90;;;;;;4862983;29;20589;-86
2023/07/04 09:19:59;;;;;;;17.03;16.17;;;21.70;99.90;;;;;;4862993;29;20467;-84
2023/07/04 09:22:29;;;;;;;15.87;15.17;;;21.70;99.90;;;;;;4854380;29;20460;-84
2023/07/04 09:24:57;;;;;;;16.60;15.80;;;21.80;99.90;;;;;;4849187;29;20826;-83
2023/07/04 09:30:28;;;;;;;16.70;15.90;;;22.00;99.90;;;;;;4855869;29;20498;-83
2023/07/04 09:32:59;;;;;;;17.83;17.00;;;22.10;99.90;;;;;;4849210;29;20461;-84
2023/07/04 09:39:47;;;;;;;17.63;16.67;;;21.90;99.90;;;;;;4846970;29;20499;-85
2023/07/04 09:42:23;;;;;;;17.20;16.23;;;21.90;99.90;;;;;;4847436;29;20456;-85
2023/07/04 09:45:22;;;;;;;18.30;17.40;;;21.90;99.90;;;;;;4853902;29;20449;-83
2023/07/04 09:48:36;;;;;;;17.70;16.90;;;22.00;99.90;;;;;;4902348;23;20517;-84
2023/07/04 09:51:24;;;;;;;17.20;16.40;;;22.10;99.90;;;;;;4890531;29;20455;-84
2023/07/04 09:56:56;;;;;;;17.07;16.27;;;22.20;99.90;;;;;;4885187;29;20490;-84
2023/07/04 09:59:36;;;;;;;17.00;16.00;;;22.20;99.90;;;;;;4873446;29;20491;-84
2023/07/04 10:02:14;;;;;;;18.33;17.10;;;22.20;99.90;;;;;;4865794;29;20833;-86
2023/07/04 10:04:50;;;;;;;17.60;16.70;;;22.30;99.90;;;;;;4867581;29;20475;-84
2023/07/04 10:10:34;;;;;;;16.97;16.00;;;22.40;99.90;;;;;;4852823;29;20543;-84
2023/07/04 10:13:33;;;;;;;16.67;15.77;;;22.30;99.90;;;;;;4847061;29;20533;-85
2023/07/04 10:16:02;;;;;;;16.57;15.77;;;22.30;99.90;;;;;;4858080;29;20456;-85
2023/07/04 10:18:48;;;;;;;17.80;16.73;;;22.40;99.90;;;;;;4844029;29;21044;-85
2023/07/04 10:21:20;;;;;;;17.10;16.20;;;22.50;99.90;;;;;;4834104;29;20462;-87
2023/07/04 10:23:49;;;;;;;17.70;16.67;;;22.40;99.90;;;;;;4831532;29;20563;-83
2023/07/04 10:26:17;;;;;;;16.60;15.70;;;22.40;99.90;;;;;;4833229;29;20464;-84
2023/07/04 10:28:48;;;;;;;17.20;16.40;;;22.40;99.90;;;;;;4826809;29;20488;-84
2023/07/04 10:31:23;;;;;;;16.97;16.17;;;22.60;99.90;;;;;;4831755;29;20557;-82
2023/07/04 10:37:23;;;;;;;17.00;15.70;;;22.70;99.90;;;;;;4829120;29;20493;-84
2023/07/04 10:39:58;;;;;;;16.53;15.80;;;22.70;99.90;;;;;;4831709;29;20852;-85
2023/07/04 10:46:10;;;;;;;16.50;15.67;;;22.70;99.90;;;;;;4820788;29;20577;-86
2023/07/04 10:48:47;;;;;;;16.10;15.30;;;22.90;99.90;;;;;;4830308;29;21077;-89
2023/07/04 10:51:23;;;;;;;17.60;16.80;;;22.80;99.90;;;;;;4833887;29;20819;-84
2023/07/04 10:53:56;;;;;;;17.00;16.10;;;22.80;99.90;;;;;;4834633;29;20473;-86
2023/07/04 10:56:46;;;;;;;16.27;15.60;;;22.90;99.90;;;;;;4832251;29;21014;-84
2023/07/04 10:59:38;;;;;;;16.47;15.77;;;22.90;99.90;;;;;;4831018;29;20484;-85
2023/07/04 11:09:20;;;;;;;16.03;15.33;;;23.00;99.90;;;;;;4826644;29;20872;-83
2023/07/04 11:11:51;;;;;;;16.00;15.30;;;23.00;99.90;;;;;;4824825;29;20560;-84
2023/07/04 11:14:24;;;;;;;16.57;15.63;;;22.90;99.90;;;;;;4827896;29;21090;-84
2023/07/04 11:16:55;;;;;;;16.93;15.93;;;23.00;99.90;;;;;;4829422;29;20457;-84
2023/07/04 11:19:26;;;;;;;16.90;16.07;;;23.00;99.90;;;;;;4829139;29;20473;-85
2023/07/04 11:22:10;;;;;;;16.63;15.80;;;23.10;99.90;;;;;;4831810;29;20556;-87
2023/07/04 11:24:40;;;;;;;15.93;15.33;;;23.10;99.90;;;;;;4826946;29;20473;-85
2023/07/04 11:27:14;;;;;;;17.00;16.13;;;23.10;99.90;;;;;;4851987;29;20464;-87
2023/07/04 11:29:54;;;;;;;16.77;15.90;;;23.10;99.90;;;;;;4832861;29;21719;-82
2023/07/04 11:32:27;;;;;;;16.03;15.23;;;23.20;99.90;;;;;;4831468;29;20474;-85
2023/07/04 11:38:50;;;;;;;16.23;15.23;;;23.10;99.90;;;;;;4831341;29;20503;-83
2023/07/04 11:41:33;;;;;;;16.00;15.40;;;23.10;99.90;;;;;;4832577;29;21007;-83
2023/07/04 11:44:23;;;;;;;15.23;14.63;;;23.20;99.90;;;;;;4845653;29;20473;-84
2023/07/04 11:47:01;;;;;;;15.30;14.50;;;23.40;99.90;;;;;;4831086;29;20968;-84
2023/07/04 11:57:39;;;;;;;15.73;15.13;;;23.60;99.90;;;;;;4850801;29;20673;-84
2023/07/04 12:00:43;;;;;;;15.83;15.03;;;23.70;99.90;;;;;;4875041;29;20540;-85
2023/07/04 12:07:43;;;;;;;15.13;14.43;;;23.90;99.90;;;;;;4836436;29;20467;-85
2023/07/04 12:10:17;;;;;;;13.80;13.33;;;23.90;99.90;;;;;;4860375;29;20557;-87
2023/07/04 12:25:20;;;;;;;13.13;12.63;;;23.90;99.90;;;;;;4885298;29;20463;-85
2023/07/04 12:27:48;;;;;;;13.80;13.37;;;23.90;99.90;;;;;;4865299;29;20471;-90
2023/07/04 12:30:17;;;;;;;15.63;14.87;;;24.00;99.90;;;;;;4855347;29;20507;-87
2023/07/04 12:32:49;;;;;;;14.07;13.47;;;24.10;99.90;;;;;;4862438;29;20515;-87
2023/07/04 12:35:19;;;;;;;14.63;14.20;;;24.20;99.90;;;;;;4865394;29;21156;-87
2023/07/04 12:37:51;;;;;;;13.03;12.63;;;24.20;99.90;;;;;;4870498;29;20494;-87
2023/07/04 12:40:24;;;;;;;13.87;13.37;;;24.10;99.90;;;;;;4870740;29;20448;-85
2023/07/04 12:42:53;;;;;;;13.73;13.00;;;24.00;99.90;;;;;;4871224;29;20448;-86
2023/07/04 12:45:25;;;;;;;13.60;13.10;;;24.00;99.90;;;;;;4865482;29;20544;-86
2023/07/04 12:47:57;;;;;;;14.40;13.90;;;24.00;99.90;;;;;;4866839;29;21030;-84
2023/07/04 12:50:30;;;;;;;13.17;12.70;;;24.00;99.90;;;;;;4866263;29;20557;-85
2023/07/04 12:53:01;;;;;;;13.27;12.70;;;24.00;99.90;;;;;;4866970;29;21029;-84
2023/07/04 12:55:32;;;;;;;13.83;13.33;;;23.90;99.90;;;;;;4870917;29;20562;-84
2023/07/04 12:58:02;;;;;;;13.30;12.70;;;24.00;99.90;;;;;;4869134;29;20870;-83
2023/07/04 13:00:32;;;;;;;13.27;12.73;;;24.00;99.90;;;;;;4862775;29;20479;-85
2023/07/04 13:03:51;;;;;;;14.00;13.40;;;23.90;99.90;;;;;;4866947;29;20482;-86
2023/07/04 13:16:28;;;;;;;13.80;13.23;;;24.20;99.90;;;;;;4880431;29;20739;-84
2023/07/04 13:18:58;;;;;;;13.03;12.63;;;24.20;99.90;;;;;;5109439;23;20610;-83
2023/07/04 13:21:29;;;;;;;13.70;13.20;;;24.20;99.90;;;;;;4887125;29;20455;-84
2023/07/04 13:28:24;;;;;;;13.00;12.40;;;24.30;99.90;;;;;;4893371;23;21220;-86
2023/07/04 13:31:24;;;;;;;14.47;13.93;;;24.10;99.90;;;;;;4876282;29;20907;-84
2023/07/04 13:35:31;;;;;;;12.40;11.77;;;24.20;99.90;;;;;;4871343;29;20526;-83
2023/07/04 13:37:59;;;;;;;11.90;11.50;;;24.40;99.90;;;;;;4938577;23;20474;-83
2023/07/04 13:48:58;;;;;;;11.80;11.40;;;24.30;99.90;;;;;;4851427;29;20517;-81
2023/07/04 13:51:27;;;;;;;12.10;11.70;;;24.20;99.90;;;;;;4859022;29;21019;-81
2023/07/04 13:54:25;;;;;;;12.70;12.10;;;24.20;99.90;;;;;;4868289;29;20478;-84
2023/07/04 14:10:15;;;;;;;11.43;11.13;;;24.30;99.90;;;;;;4777759;29;20485;-81
2023/07/04 14:13:01;;;;;;;11.93;11.60;;;24.20;99.90;;;;;;4813956;29;21422;-81
2023/07/04 14:15:31;;;;;;;12.30;11.80;;;24.20;99.90;;;;;;4810593;29;20474;-84
2023/07/04 14:18:37;;;;;;;12.00;11.50;;;24.20;99.90;;;;;;4825092;29;20483;-86
2023/07/04 14:42:50;;;;;;;11.90;11.50;;;24.30;99.90;;;;;;4125905;27;20640;-85
2023/07/04 14:49:58;;;;;;;13.37;12.03;;;24.30;99.90;;;;;;4821821;29;20483;-83
2023/07/04 14:52:50;;;;;;;11.87;11.37;;;24.30;99.90;;;;;;4851557;29;20855;-85
2023/07/04 14:59:09;;;;;;;12.23;11.77;;;24.40;99.90;;;;;;4865444;29;20480;-85